Waco's Hourly Summary for Tuesday, July 10, 2018
Hour Temp
(f)
RH
(%)
Solar Rad.
(MJ/m2)
Rainfall
(in)
Wind
(mph)
7/10/2018 12:00 AM 75 77 0 0 2.21
7/10/2018 1:00 AM 74 80 0 0 3.17
7/10/2018 2:00 AM 73 83 0 0 2.82
7/10/2018 3:00 AM 73 84 0 0 1.75
7/10/2018 4:00 AM 73 84 0 0 1.31
7/10/2018 5:00 AM 73 84 0 0 0.83
7/10/2018 6:00 AM 73 83 0 0 1.03
7/10/2018 7:00 AM 74 82 0.01 0 0.99
7/10/2018 8:00 AM 74 83 0.15 0 1.02
7/10/2018 9:00 AM 78 69 0.74 0 1.42
7/10/2018 10:00 AM 85 54 1.48 0 4.43
7/10/2018 11:00 AM 88 39 1.96 0 4.91
7/10/2018 12:00 PM 92 37 2.56 0 4.76
7/10/2018 1:00 PM 95 35 3.02 0 4.07
7/10/2018 2:00 PM 96 33 2.67 0 4.24
7/10/2018 3:00 PM 95 35 1.24 0 2.7
7/10/2018 4:00 PM 91 36 0.49 0.22 5.42
7/10/2018 5:00 PM 74 78 0.11 1.39 5.48
7/10/2018 6:00 PM 75 85 0.13 0 3.19
7/10/2018 7:00 PM 78 81 0.13 0 1.07
7/10/2018 8:00 PM 77 81 0.1 0 0.8
7/10/2018 9:00 PM 77 84 0.04 0 2.13
7/10/2018 10:00 PM 77 83 0 0 1.13
7/10/2018 11:00 PM 77 80 0 0 1.06
Data Summary 79 68 14.83 1.61 2.58